METAR Luftfahrt Wetterdaten     EDDE Erfurt Airport
Temperatur
7°C Temperatur
6°C Taupunkt
93% Feuchtigkeit



Wind
5 KM/S
3 MPS
1 M/S
3 KTS



30°
NNO
Aktuelle Wetterlage

Teilweise bewölkt Teilweise bewölkt
Luftdruck 1012.87 (hPa) - 29.91 (inHg)
Sichtweite 6 (Meile) - 9.7 (Km)
Flughafen
Flughafen Code EDDE

Position : Erfurt Airport
Entfernung: 30 (Km)

Metar:
EDDE 150420Z AUTO 03003KT 360V060 9999 FEW009 SCT027 07/06 Q1013 NOSIG

Zeit: 15-04-2024 04:20 CEST